KSAV/SAV METAR and TAF weather

Enter ICAO airport designator
Station Type Date Time Source
KSAV METAR 2019/02/16 06:53 UTC NOAA

KSAV 160653Z AUTO 18005KT 10SM CLR 14/09 A2985 RMK AO2 SLP108 T01440094


Station Type Date Time Source
KSAV Decoded METAR 2019/02/16 06:53 UTC NOAA

SAVANNAH INTERNATIONAL AIRPORT , GA, United States (KSAV) 32-07N 81-12W 14M
Feb 16, 2019 - 01:53 AM EST / 2019.02.16 0653 UTC
Wind: from the S (180 degrees) at 6 MPH (5 KT):0
Visibility: 10 mile(s):0
Sky conditions: clear
Temperature: 57.9 F (14.4 C)
Dew Point: 48.9 F (9.4 C)
Relative Humidity: 71%
Pressure (altimeter): 29.85 in. Hg (1010 hPa)
ob: KSAV 160653Z AUTO 18005KT 10SM CLR 14/09 A2985 RMK AO2 SLP108 T01440094
cycle: 7

Station Type Date Time Source
KSAV TAF 2019/02/16 06:42 UTC NOAA

TAF KSAV 160539Z 1606/1706 20004KT P6SM -SHRA SCT060 OVC150
FM161000 22006KT P6SM OVC100
FM161500 24011KT P6SM SCT040 BKN100
FM170400 03006KT 6SM -SHRA SCT010 OVC020


Example: see airport list